Time;durP1;ratioP1;P1;durP2;ratioP2;P2;SDS_P1;SDS_P2;PMS_P1;PMS_P2;Temp;Humidity;BMP_temperature;BMP_pressure;BME280_temperature;BME280_humidity;BME280_pressure;Samples;Min_cycle;Max_cycle;Signal;HPM_P1;HPM_P2
2022/01/13 00:01:38;;;;;;;28.30;17.90;;;8.10;99.90;;;;;;5055053;28;20571;-64
2022/01/13 00:04:06;;;;;;;24.73;16.42;;;8.10;99.90;;;;;;5054026;28;20227;-64
2022/01/13 00:06:34;;;;;;;29.45;18.30;;;8.10;99.90;;;;;;5052519;28;20223;-64
2022/01/13 00:09:01;;;;;;;32.22;20.30;;;8.10;99.90;;;;;;5049626;28;20237;-64
2022/01/13 00:11:27;;;;;;;31.08;20.38;;;8.10;99.90;;;;;;5054649;28;20234;-65
2022/01/13 00:14:11;;;;;;;33.28;20.45;;;8.00;99.90;;;;;;5048105;28;20229;-64
2022/01/13 00:16:41;;;;;;;31.90;21.75;;;8.10;99.90;;;;;;5054669;28;20566;-64
2022/01/13 00:19:20;;;;;;;33.90;19.38;;;8.10;99.90;;;;;;5054290;28;20220;-65
2022/01/13 00:21:56;;;;;;;30.23;20.15;;;8.10;99.90;;;;;;5047517;28;20317;-64
2022/01/13 00:24:23;;;;;;;32.92;19.30;;;8.10;99.90;;;;;;5041525;28;20236;-64
2022/01/13 00:26:49;;;;;;;30.67;19.83;;;8.10;99.90;;;;;;5053629;28;20324;-64
2022/01/13 00:29:21;;;;;;;33.97;20.15;;;8.00;99.90;;;;;;5054339;28;20225;-66
2022/01/13 00:31:48;;;;;;;48.28;30.35;;;8.10;99.90;;;;;;5053720;28;20238;-65
2022/01/13 00:34:15;;;;;;;31.73;21.35;;;8.00;99.90;;;;;;5054365;28;20610;-65
2022/01/13 00:36:42;;;;;;;32.05;23.05;;;8.00;99.90;;;;;;5054038;28;20224;-64
2022/01/13 00:39:14;;;;;;;29.75;22.38;;;8.00;99.90;;;;;;5053841;28;20302;-65
2022/01/13 00:41:41;;;;;;;36.05;25.45;;;8.00;99.90;;;;;;5054052;28;20226;-64
2022/01/13 00:44:09;;;;;;;38.67;21.25;;;8.00;99.90;;;;;;5053725;28;20228;-64
2022/01/13 00:46:45;;;;;;;36.45;21.40;;;8.10;99.90;;;;;;5042138;28;20233;-66
2022/01/13 00:49:14;;;;;;;37.67;23.25;;;8.00;99.90;;;;;;5053879;28;20647;-65
2022/01/13 00:51:41;;;;;;;31.10;19.48;;;8.10;99.90;;;;;;5053778;28;20224;-65
2022/01/13 00:54:10;;;;;;;27.08;21.02;;;8.10;99.90;;;;;;5053003;28;20556;-63
2022/01/13 00:56:38;;;;;;;28.52;22.38;;;8.10;99.90;;;;;;5053571;28;20323;-64
2022/01/13 00:59:07;;;;;;;37.50;25.02;;;8.10;99.90;;;;;;5053499;28;20553;-65
2022/01/13 01:01:35;;;;;;;34.08;20.48;;;8.10;99.90;;;;;;5053641;28;20231;-66
2022/01/13 01:04:02;;;;;;;32.60;22.00;;;8.10;99.90;;;;;;5053119;28;20240;-65
2022/01/13 01:06:29;;;;;;;30.85;19.23;;;8.10;99.90;;;;;;5051938;28;20237;-65
2022/01/13 01:08:56;;;;;;;29.80;19.30;;;8.10;99.90;;;;;;5047805;28;20829;-62
2022/01/13 01:11:26;;;;;;;30.48;20.05;;;8.10;99.90;;;;;;5053490;28;20321;-65
2022/01/13 01:13:55;;;;;;;30.20;19.42;;;8.10;99.90;;;;;;5047533;28;20235;-65
2022/01/13 01:16:23;;;;;;;30.27;18.80;;;8.10;99.90;;;;;;5053094;28;20223;-65
2022/01/13 01:18:54;;;;;;;30.52;18.98;;;8.00;99.90;;;;;;5053411;28;20592;-64
2022/01/13 01:22:03;;;;;;;31.75;19.98;;;8.00;99.90;;;;;;5052884;28;20986;-64
2022/01/13 01:27:18;;;;;;;31.15;20.88;;;7.90;99.90;;;;;;5051500;28;20246;-64
2022/01/13 01:29:53;;;;;;;28.38;18.25;;;7.90;99.90;;;;;;5052103;28;20227;-64
2022/01/13 01:32:20;;;;;;;28.17;17.75;;;7.90;99.90;;;;;;5039804;28;20243;-65
2022/01/13 01:34:56;;;;;;;32.45;20.63;;;7.90;99.90;;;;;;5052659;28;20235;-64
2022/01/13 01:37:24;;;;;;;30.85;21.05;;;7.90;99.90;;;;;;5053072;28;20220;-64
2022/01/13 01:39:51;;;;;;;32.05;21.33;;;7.90;99.90;;;;;;5052649;28;20231;-64
2022/01/13 01:42:22;;;;;;;36.33;20.08;;;8.00;99.90;;;;;;5053077;28;20223;-66
2022/01/13 01:44:52;;;;;;;34.17;20.60;;;8.00;99.90;;;;;;5052468;28;20776;-65
2022/01/13 01:47:21;;;;;;;28.08;18.98;;;8.00;99.90;;;;;;5043454;28;20233;-65
2022/01/13 01:49:52;;;;;;;26.00;18.77;;;8.00;99.90;;;;;;5052427;28;20253;-65
2022/01/13 01:52:20;;;;;;;26.25;19.63;;;8.10;99.90;;;;;;5052571;28;20225;-65
2022/01/13 01:54:49;;;;;;;33.10;20.50;;;8.10;99.90;;;;;;5052525;28;20542;-65
2022/01/13 01:57:17;;;;;;;34.53;22.00;;;8.10;99.90;;;;;;5052768;28;20228;-64
2022/01/13 01:59:46;;;;;;;30.80;19.60;;;8.10;99.90;;;;;;5051760;28;20239;-65
2022/01/13 02:02:15;;;;;;;26.70;18.35;;;8.00;99.90;;;;;;5052549;28;20330;-64
2022/01/13 02:04:42;;;;;;;32.83;21.27;;;8.00;99.90;;;;;;5052323;28;20227;-64
2022/01/13 02:07:10;;;;;;;28.08;18.65;;;8.10;99.90;;;;;;5051312;28;20233;-64
2022/01/13 02:09:41;;;;;;;30.67;19.85;;;8.10;99.90;;;;;;5052686;28;20233;-64
2022/01/13 02:12:12;;;;;;;30.30;20.90;;;8.10;99.90;;;;;;5052417;28;20661;-64
2022/01/13 02:14:50;;;;;;;28.60;19.92;;;8.10;99.90;;;;;;5051753;28;20257;-65
2022/01/13 02:17:24;;;;;;;35.03;23.65;;;8.00;99.90;;;;;;5052267;28;20749;-65
2022/01/13 02:19:53;;;;;;;32.60;21.30;;;8.00;99.90;;;;;;5047753;28;20237;-64
2022/01/13 02:22:22;;;;;;;31.27;21.00;;;8.00;99.90;;;;;;5052238;28;20293;-65
2022/01/13 02:24:50;;;;;;;30.15;22.23;;;8.00;99.90;;;;;;5052146;28;20580;-64
2022/01/13 02:27:17;;;;;;;29.70;19.92;;;8.00;99.90;;;;;;5052031;28;20229;-63
2022/01/13 02:29:44;;;;;;;30.77;20.48;;;8.00;99.90;;;;;;5052556;28;20242;-65
2022/01/13 02:32:11;;;;;;;27.98;18.58;;;8.00;99.90;;;;;;5051955;28;20232;-64
2022/01/13 02:34:38;;;;;;;32.05;22.35;;;8.00;99.90;;;;;;5052360;28;20231;-65
2022/01/13 02:37:05;;;;;;;29.20;20.42;;;8.10;99.90;;;;;;5051945;28;20227;-64
2022/01/13 02:39:34;;;;;;;37.05;23.95;;;8.00;99.90;;;;;;5052229;28;20233;-64
2022/01/13 02:42:03;;;;;;;34.50;22.92;;;8.00;99.90;;;;;;5051697;28;20230;-65
2022/01/13 02:44:31;;;;;;;34.42;20.90;;;7.90;99.90;;;;;;5052322;28;20708;-65
2022/01/13 02:47:21;;;;;;;30.10;20.20;;;8.00;99.90;;;;;;5051879;28;20290;-64
2022/01/13 02:49:48;;;;;;;28.90;19.48;;;8.00;99.90;;;;;;5052051;28;20235;-63
2022/01/13 02:52:15;;;;;;;32.22;22.45;;;8.00;99.90;;;;;;5050779;28;20292;-64
2022/01/13 02:54:44;;;;;;;28.70;19.77;;;7.90;99.90;;;;;;5039994;28;20230;-65
2022/01/13 02:57:10;;;;;;;33.78;20.77;;;8.00;99.90;;;;;;5051642;28;20247;-65
2022/01/13 02:59:37;;;;;;;31.75;22.52;;;8.00;99.90;;;;;;5052274;28;20228;-64
2022/01/13 03:02:04;;;;;;;37.78;21.13;;;8.00;99.90;;;;;;5051622;28;20235;-64
2022/01/13 03:04:32;;;;;;;26.15;20.77;;;7.90;99.90;;;;;;5052212;28;20223;-65
2022/01/13 03:06:59;;;;;;;38.08;22.27;;;7.90;99.90;;;;;;5051510;28;20316;-65
2022/01/13 03:09:26;;;;;;;27.95;20.85;;;7.90;99.90;;;;;;5052067;28;20561;-65
2022/01/13 03:11:54;;;;;;;36.50;21.98;;;7.90;99.90;;;;;;5051871;28;20238;-65
2022/01/13 03:14:21;;;;;;;29.13;20.65;;;7.90;99.90;;;;;;5051204;28;20234;-65
2022/01/13 03:16:48;;;;;;;35.45;21.88;;;8.00;99.90;;;;;;5051799;28;20238;-65
2022/01/13 03:19:15;;;;;;;33.78;21.48;;;7.90;99.90;;;;;;5053619;28;20237;-65
2022/01/13 03:21:42;;;;;;;32.17;20.48;;;7.90;99.90;;;;;;5051207;28;20227;-64
2022/01/13 03:24:11;;;;;;;29.90;19.13;;;7.90;99.90;;;;;;5055040;28;20226;-64
2022/01/13 03:26:38;;;;;;;54.70;24.77;;;7.90;99.90;;;;;;5055476;28;20230;-63
2022/01/13 03:29:17;;;;;;;37.80;21.98;;;7.90;99.90;;;;;;5055265;28;20227;-64
2022/01/13 03:31:45;;;;;;;26.83;18.95;;;7.90;99.90;;;;;;5055384;28;20236;-64
2022/01/13 03:34:13;;;;;;;31.90;22.45;;;7.90;99.90;;;;;;5054950;28;20260;-63
2022/01/13 03:36:40;;;;;;;34.53;23.02;;;7.90;99.90;;;;;;5055460;28;20616;-64
2022/01/13 03:39:09;;;;;;;29.48;21.58;;;7.80;99.90;;;;;;5054848;28;20224;-64
2022/01/13 03:41:36;;;;;;;29.83;21.75;;;7.80;99.90;;;;;;5054933;28;20237;-64
2022/01/13 03:44:07;;;;;;;34.05;21.23;;;7.90;99.90;;;;;;5054781;28;20269;-64
2022/01/13 03:46:37;;;;;;;28.27;18.10;;;7.80;99.90;;;;;;5055217;28;20222;-64
2022/01/13 03:49:07;;;;;;;34.42;18.33;;;7.80;99.90;;;;;;5054704;28;20219;-64
2022/01/13 03:52:27;;;;;;;35.90;21.67;;;7.80;99.90;;;;;;5055111;28;20226;-65
2022/01/13 03:55:49;;;;;;;30.50;19.63;;;7.80;99.90;;;;;;5044302;28;20248;-65
2022/01/13 03:58:56;;;;;;;29.70;20.83;;;7.80;99.90;;;;;;5044945;28;20231;-65
2022/01/13 04:01:55;;;;;;;25.60;18.15;;;7.80;99.90;;;;;;5053218;28;20218;-65
2022/01/13 04:04:22;;;;;;;29.95;21.55;;;7.70;99.90;;;;;;5041881;28;20224;-65
2022/01/13 04:06:49;;;;;;;27.67;21.33;;;7.80;99.90;;;;;;5054480;28;20233;-64
2022/01/13 04:09:37;;;;;;;29.35;21.42;;;7.80;99.90;;;;;;5054345;28;20722;-64
2022/01/13 04:12:06;;;;;;;30.58;19.40;;;7.70;99.90;;;;;;5054181;28;20230;-64
2022/01/13 04:14:43;;;;;;;32.10;20.63;;;7.70;99.90;;;;;;5054187;28;20227;-64
2022/01/13 04:17:12;;;;;;;27.05;17.95;;;7.70;99.90;;;;;;5054258;28;20235;-64
2022/01/13 04:19:39;;;;;;;25.13;18.92;;;7.70;99.90;;;;;;5054258;28;20215;-65
2022/01/13 04:22:07;;;;;;;31.70;20.85;;;7.70;99.90;;;;;;5053979;28;20233;-64
2022/01/13 04:24:36;;;;;;;29.30;20.25;;;7.70;99.90;;;;;;5042843;28;20221;-64
2022/01/13 04:27:03;;;;;;;38.78;22.35;;;7.80;99.90;;;;;;5040956;28;20253;-64
2022/01/13 04:29:34;;;;;;;33.38;20.52;;;7.70;99.90;;;;;;5053022;28;20229;-64
2022/01/13 04:32:02;;;;;;;30.20;24.90;;;7.80;99.90;;;;;;5053270;28;20239;-64
2022/01/13 04:34:30;;;;;;;34.95;21.83;;;7.80;99.90;;;;;;5053835;28;20232;-64
2022/01/13 04:36:58;;;;;;;42.92;25.95;;;7.80;99.90;;;;;;5054275;28;20222;-64
2022/01/13 04:39:26;;;;;;;32.83;22.08;;;7.80;99.90;;;;;;5053787;28;20233;-64
2022/01/13 04:41:53;;;;;;;37.35;23.42;;;7.80;99.90;;;;;;5053919;28;20293;-64
2022/01/13 04:44:22;;;;;;;31.38;23.77;;;7.80;99.90;;;;;;5053236;28;20232;-64
2022/01/13 04:46:51;;;;;;;35.53;23.65;;;7.80;99.90;;;;;;5054229;28;20572;-64
2022/01/13 04:49:19;;;;;;;34.17;23.85;;;7.90;99.90;;;;;;5053440;28;20226;-64
2022/01/13 04:51:49;;;;;;;35.65;24.23;;;7.80;99.90;;;;;;5053961;28;20282;-64
2022/01/13 04:54:16;;;;;;;32.25;24.05;;;7.80;99.90;;;;;;5053282;28;20223;-64
2022/01/13 04:56:53;;;;;;;32.83;22.10;;;7.80;99.90;;;;;;5053298;28;20216;-64
2022/01/13 04:59:20;;;;;;;37.20;24.52;;;7.80;99.90;;;;;;5053439;28;20283;-64
2022/01/13 05:01:47;;;;;;;34.08;24.13;;;7.70;99.90;;;;;;5053822;28;20231;-64
2022/01/13 05:04:13;;;;;;;36.88;24.67;;;7.80;99.90;;;;;;5053240;28;20224;-64
2022/01/13 05:06:40;;;;;;;35.85;21.30;;;7.70;99.90;;;;;;5053389;28;20677;-64
2022/01/13 05:09:08;;;;;;;36.75;24.73;;;7.70;99.90;;;;;;5053271;28;20222;-64
2022/01/13 05:11:35;;;;;;;32.72;22.88;;;7.80;99.90;;;;;;5053442;28;20586;-64
2022/01/13 05:14:02;;;;;;;31.33;22.17;;;7.70;99.90;;;;;;5055253;28;20235;-64
2022/01/13 05:16:35;;;;;;;38.67;25.25;;;7.70;99.90;;;;;;5053216;28;20338;-64
2022/01/13 05:19:13;;;;;;;38.20;24.08;;;7.70;99.90;;;;;;5053474;28;20324;-64
2022/01/13 05:21:56;;;;;;;39.63;24.52;;;7.70;99.90;;;;;;5052314;28;20251;-64
2022/01/13 05:24:24;;;;;;;36.10;23.30;;;7.70;99.90;;;;;;5043984;28;20246;-64
2022/01/13 05:26:52;;;;;;;39.47;24.85;;;7.70;99.90;;;;;;5053121;28;20628;-64
2022/01/13 05:29:20;;;;;;;35.90;22.40;;;7.70;99.90;;;;;;5053289;28;20243;-64
2022/01/13 05:31:50;;;;;;;39.08;22.83;;;7.70;99.90;;;;;;5052643;28;20309;-64
2022/01/13 05:34:18;;;;;;;41.35;24.88;;;7.70;99.90;;;;;;5052836;28;20225;-64
2022/01/13 05:36:45;;;;;;;36.47;23.17;;;7.60;99.90;;;;;;5052603;28;20222;-64
2022/01/13 05:39:13;;;;;;;34.92;24.65;;;7.70;99.90;;;;;;5052943;28;20239;-64
2022/01/13 05:41:41;;;;;;;39.50;25.52;;;7.60;99.90;;;;;;5052446;28;20238;-64
2022/01/13 05:44:08;;;;;;;35.28;23.85;;;7.70;99.90;;;;;;5052902;28;20231;-64
2022/01/13 05:46:35;;;;;;;46.33;24.15;;;7.70;99.90;;;;;;5052454;28;20572;-64
2022/01/13 05:49:01;;;;;;;34.75;22.95;;;7.60;99.90;;;;;;5053053;28;20219;-64
2022/01/13 05:51:28;;;;;;;31.83;22.15;;;7.60;99.90;;;;;;5052543;28;20229;-64
2022/01/13 05:53:55;;;;;;;45.75;25.45;;;7.60;99.90;;;;;;5047671;28;20223;-64
2022/01/13 05:56:22;;;;;;;38.35;25.25;;;7.60;99.90;;;;;;5044549;28;20226;-64
2022/01/13 05:58:50;;;;;;;33.13;20.38;;;7.60;99.90;;;;;;5052313;28;20235;-64
2022/01/13 06:01:17;;;;;;;30.13;21.23;;;7.60;99.90;;;;;;5052624;28;20233;-64
2022/01/13 06:03:44;;;;;;;32.45;20.10;;;7.60;99.90;;;;;;5052246;28;20248;-64
2022/01/13 06:06:11;;;;;;;37.83;22.20;;;7.60;99.90;;;;;;5052652;28;20242;-64
2022/01/13 06:08:38;;;;;;;36.63;23.92;;;7.60;99.90;;;;;;5051396;28;20689;-64
2022/01/13 06:11:05;;;;;;;32.45;22.10;;;7.60;99.90;;;;;;5052634;28;20673;-64
2022/01/13 06:13:31;;;;;;;29.77;21.88;;;7.60;99.90;;;;;;5046905;28;20216;-64
2022/01/13 06:16:00;;;;;;;32.35;21.85;;;7.60;99.90;;;;;;5045370;28;20556;-64
2022/01/13 06:18:28;;;;;;;33.35;21.80;;;7.70;99.90;;;;;;5052346;28;20218;-64
2022/01/13 06:20:55;;;;;;;30.33;19.92;;;7.60;99.90;;;;;;5051023;28;20677;-65
2022/01/13 06:23:22;;;;;;;37.88;24.35;;;7.60;99.90;;;;;;5036924;28;20224;-65
2022/01/13 06:25:49;;;;;;;34.80;22.83;;;7.70;99.90;;;;;;5045540;28;20250;-65
2022/01/13 06:28:16;;;;;;;34.20;21.33;;;7.70;99.90;;;;;;5051610;28;20227;-65
2022/01/13 06:30:43;;;;;;;35.72;22.33;;;7.70;99.90;;;;;;5051630;28;20245;-64
2022/01/13 06:33:11;;;;;;;32.88;20.05;;;7.60;99.90;;;;;;5052297;28;20219;-65
2022/01/13 06:35:38;;;;;;;28.30;19.13;;;7.70;99.90;;;;;;5051826;28;20223;-64
2022/01/13 06:38:05;;;;;;;30.83;20.58;;;7.60;99.90;;;;;;5052588;28;20229;-64
2022/01/13 06:40:32;;;;;;;30.95;18.85;;;7.70;99.90;;;;;;5052397;28;20225;-64
2022/01/13 06:42:58;;;;;;;32.13;20.85;;;7.70;99.90;;;;;;5052224;28;20253;-65
2022/01/13 06:45:25;;;;;;;38.13;21.95;;;7.70;99.90;;;;;;5052526;28;20223;-65
2022/01/13 06:47:52;;;;;;;30.42;20.60;;;7.70;99.90;;;;;;5051933;28;20228;-65
2022/01/13 06:50:20;;;;;;;40.33;22.80;;;7.70;99.90;;;;;;5051793;28;20240;-64
2022/01/13 06:52:48;;;;;;;33.58;20.42;;;7.70;99.90;;;;;;5052528;28;20236;-64
2022/01/13 06:55:15;;;;;;;34.30;21.35;;;7.70;99.90;;;;;;5055974;28;20215;-65
2022/01/13 06:57:42;;;;;;;30.80;20.33;;;7.70;99.90;;;;;;5055802;28;20698;-65
2022/01/13 07:00:10;;;;;;;32.28;21.52;;;7.80;99.90;;;;;;5056228;28;20238;-64
2022/01/13 07:02:37;;;;;;;41.47;27.55;;;7.80;99.90;;;;;;5055743;28;20561;-65
2022/01/13 07:05:04;;;;;;;37.17;20.23;;;7.80;99.90;;;;;;5056153;28;20559;-65
2022/01/13 07:07:36;;;;;;;35.95;21.65;;;7.80;99.90;;;;;;5055897;28;20239;-65
2022/01/13 07:10:03;;;;;;;29.77;18.80;;;7.80;99.90;;;;;;5054925;28;20226;-65
2022/01/13 07:12:30;;;;;;;43.13;23.60;;;7.80;99.90;;;;;;5055698;28;20228;-65
2022/01/13 07:14:57;;;;;;;38.58;22.40;;;7.80;99.90;;;;;;5055632;28;20242;-65
2022/01/13 07:17:24;;;;;;;34.80;20.63;;;7.80;99.90;;;;;;5055789;28;20223;-65
2022/01/13 07:19:51;;;;;;;33.88;19.60;;;7.80;99.90;;;;;;5055261;28;20229;-65
2022/01/13 07:22:19;;;;;;;33.10;20.17;;;7.80;99.90;;;;;;5055703;28;20227;-65
2022/01/13 07:24:47;;;;;;;33.80;23.65;;;7.80;99.90;;;;;;5055255;28;20988;-64
2022/01/13 07:27:14;;;;;;;32.05;23.13;;;7.70;99.90;;;;;;5055728;28;20237;-65
2022/01/13 07:29:42;;;;;;;35.80;24.25;;;7.70;99.90;;;;;;5055190;28;20710;-65
2022/01/13 07:32:09;;;;;;;40.97;23.77;;;7.70;99.90;;;;;;5055559;28;20224;-64
2022/01/13 07:34:36;;;;;;;33.88;22.50;;;7.80;99.90;;;;;;5055385;28;20231;-65
2022/01/13 07:37:04;;;;;;;34.42;23.40;;;7.70;99.90;;;;;;5055136;28;20223;-65
2022/01/13 07:39:32;;;;;;;39.63;23.58;;;7.70;99.90;;;;;;5055366;28;20274;-65
2022/01/13 07:42:00;;;;;;;31.80;21.30;;;7.80;99.90;;;;;;5055017;28;20236;-65
2022/01/13 07:44:27;;;;;;;33.47;22.10;;;7.70;99.90;;;;;;5055443;28;20297;-65
2022/01/13 07:46:56;;;;;;;34.17;22.15;;;7.80;99.90;;;;;;5054900;28;20235;-64
2022/01/13 07:49:23;;;;;;;37.15;21.48;;;7.80;99.90;;;;;;5055232;28;20238;-64
2022/01/13 07:51:49;;;;;;;30.73;21.15;;;7.80;99.90;;;;;;5054691;28;20241;-64
2022/01/13 07:54:16;;;;;;;35.75;21.88;;;7.80;99.90;;;;;;5055277;28;20223;-65
2022/01/13 07:56:43;;;;;;;33.90;20.90;;;7.90;99.90;;;;;;5054816;28;20219;-65
2022/01/13 07:59:11;;;;;;;36.38;21.88;;;7.80;99.90;;;;;;5055107;28;20237;-64
2022/01/13 08:01:38;;;;;;;35.20;21.98;;;7.80;99.90;;;;;;5055044;28;20222;-64
2022/01/13 08:04:05;;;;;;;33.88;22.00;;;7.80;99.90;;;;;;5054690;28;20232;-65
2022/01/13 08:06:32;;;;;;;33.60;20.48;;;7.80;99.90;;;;;;5055146;28;20241;-63
2022/01/13 08:08:59;;;;;;;32.58;20.83;;;7.80;99.90;;;;;;5054171;28;20237;-65
2022/01/13 08:11:26;;;;;;;35.53;20.50;;;7.80;99.90;;;;;;5054756;28;20240;-64
2022/01/13 08:13:52;;;;;;;32.00;21.85;;;7.80;99.90;;;;;;5054187;28;20669;-65
2022/01/13 08:16:20;;;;;;;35.72;22.58;;;7.80;99.90;;;;;;5054579;28;20246;-65
2022/01/13 08:21:32;;;;;;;32.38;21.02;;;7.80;99.90;;;;;;5054853;28;20231;-65
2022/01/13 08:23:58;;;;;;;35.13;21.13;;;7.80;99.90;;;;;;5053998;28;20291;-64
2022/01/13 08:26:27;;;;;;;31.60;18.92;;;7.80;99.90;;;;;;5054655;28;20218;-64
2022/01/13 08:28:54;;;;;;;33.45;21.83;;;7.80;99.90;;;;;;5054133;28;20244;-64
2022/01/13 08:31:22;;;;;;;33.53;20.45;;;7.80;99.90;;;;;;5054291;28;20543;-64
2022/01/13 08:33:49;;;;;;;30.88;19.10;;;7.80;99.90;;;;;;5054014;28;20710;-64
2022/01/13 08:36:16;;;;;;;33.85;19.35;;;7.90;99.90;;;;;;5054363;28;20218;-64
2022/01/13 08:38:42;;;;;;;31.13;19.27;;;7.90;99.90;;;;;;5054168;28;20223;-64
2022/01/13 08:41:09;;;;;;;35.58;22.45;;;7.90;99.90;;;;;;5054133;28;20224;-65
2022/01/13 08:43:36;;;;;;;30.40;18.73;;;7.90;99.90;;;;;;5054214;28;20223;-65
2022/01/13 08:46:04;;;;;;;33.92;20.58;;;7.80;99.90;;;;;;5053593;28;20226;-64
2022/01/13 08:48:34;;;;;;;32.38;20.08;;;7.80;99.90;;;;;;5053995;28;20711;-65
2022/01/13 08:51:01;;;;;;;38.97;20.17;;;7.80;99.90;;;;;;5053584;28;20234;-65
2022/01/13 08:53:28;;;;;;;33.35;20.85;;;7.90;99.90;;;;;;5053960;28;20562;-65
2022/01/13 08:55:55;;;;;;;34.03;20.35;;;7.90;99.90;;;;;;5053552;28;20702;-65
2022/01/13 08:58:23;;;;;;;30.58;19.63;;;7.90;99.90;;;;;;5053984;28;20230;-65
2022/01/13 09:00:51;;;;;;;35.92;20.15;;;7.90;99.90;;;;;;5053076;28;20235;-65
2022/01/13 09:03:18;;;;;;;34.50;21.45;;;7.90;99.90;;;;;;5054070;28;20231;-65
2022/01/13 09:05:46;;;;;;;38.50;21.33;;;7.90;99.90;;;;;;5053723;28;20230;-65
2022/01/13 09:08:14;;;;;;;34.58;21.75;;;7.80;99.90;;;;;;5053496;28;20250;-64
2022/01/13 09:10:43;;;;;;;31.27;19.40;;;7.80;99.90;;;;;;5053820;28;20749;-65
2022/01/13 09:13:12;;;;;;;34.92;21.52;;;7.90;99.90;;;;;;5053160;28;20229;-64
2022/01/13 09:15:44;;;;;;;36.08;20.60;;;7.90;99.90;;;;;;5052866;28;20220;-64
2022/01/13 09:18:15;;;;;;;36.42;20.42;;;7.90;99.90;;;;;;5053315;28;20236;-64
2022/01/13 09:20:43;;;;;;;30.63;20.77;;;7.90;99.90;;;;;;5053367;28;20229;-64
2022/01/13 09:23:11;;;;;;;38.90;22.00;;;7.90;99.90;;;;;;5052917;28;20230;-64
2022/01/13 09:25:39;;;;;;;34.88;21.63;;;7.90;99.90;;;;;;5053591;28;20229;-64
2022/01/13 09:28:07;;;;;;;38.15;22.52;;;7.90;99.90;;;;;;5052781;28;20699;-64
2022/01/13 09:30:34;;;;;;;35.63;23.13;;;7.90;99.90;;;;;;5053353;28;20575;-64
2022/01/13 09:33:01;;;;;;;32.45;22.30;;;7.90;99.90;;;;;;5052739;28;20223;-64
2022/01/13 09:35:29;;;;;;;33.10;19.63;;;7.90;99.90;;;;;;5053280;28;20222;-64
2022/01/13 09:37:55;;;;;;;27.58;17.95;;;7.90;99.90;;;;;;5052747;28;20580;-64
2022/01/13 09:40:24;;;;;;;30.25;19.92;;;7.90;99.90;;;;;;5053339;28;20241;-64
2022/01/13 09:42:51;;;;;;;35.45;22.27;;;7.90;99.90;;;;;;5052830;28;20241;-65
2022/01/13 09:45:18;;;;;;;31.58;19.90;;;8.00;99.90;;;;;;5053026;28;20697;-65
2022/01/13 09:47:46;;;;;;;34.58;20.27;;;8.00;99.90;;;;;;5053122;28;20224;-65
2022/01/13 09:50:16;;;;;;;32.45;20.65;;;8.00;99.90;;;;;;5052656;28;20231;-64
2022/01/13 09:52:44;;;;;;;34.25;21.48;;;7.90;99.90;;;;;;5052994;28;20230;-65
2022/01/13 09:55:13;;;;;;;37.63;23.23;;;7.90;99.90;;;;;;5052633;28;20226;-64
2022/01/13 09:57:44;;;;;;;32.85;18.52;;;8.00;99.90;;;;;;5053050;28;20221;-65
2022/01/13 10:00:13;;;;;;;28.65;20.20;;;8.00;99.90;;;;;;5052524;28;20239;-65
2022/01/13 10:02:40;;;;;;;31.00;18.42;;;8.00;99.90;;;;;;5053018;28;20224;-65
2022/01/13 10:05:08;;;;;;;37.35;22.35;;;8.00;99.90;;;;;;5052623;28;20231;-65
2022/01/13 10:07:37;;;;;;;38.58;20.92;;;8.00;99.90;;;;;;5052773;28;20561;-64
2022/01/13 10:10:09;;;;;;;32.80;21.00;;;8.00;99.90;;;;;;5052379;28;20700;-64
2022/01/13 10:12:39;;;;;;;40.88;23.95;;;8.00;99.90;;;;;;5052910;28;20310;-64
2022/01/13 10:17:53;;;;;;;34.72;20.08;;;7.90;99.90;;;;;;5052749;28;20233;-65
2022/01/13 10:20:22;;;;;;;32.47;20.70;;;7.90;99.90;;;;;;5052432;28;20230;-64
2022/01/13 10:22:50;;;;;;;37.70;20.50;;;7.90;99.90;;;;;;5052548;28;20225;-65
2022/01/13 10:25:29;;;;;;;30.20;19.20;;;7.90;99.90;;;;;;5052087;28;20229;-64
2022/01/13 10:27:56;;;;;;;31.65;19.33;;;7.90;99.90;;;;;;5053185;28;20229;-65
2022/01/13 10:30:26;;;;;;;34.58;19.45;;;7.90;99.90;;;;;;5056710;28;20255;-65
2022/01/13 10:32:55;;;;;;;27.52;19.10;;;7.90;99.90;;;;;;5056754;28;20312;-64
2022/01/13 10:35:23;;;;;;;35.97;19.38;;;7.90;99.90;;;;;;5056236;28;20222;-63
2022/01/13 10:37:56;;;;;;;30.25;19.13;;;8.00;99.90;;;;;;5056652;28;20241;-63
2022/01/13 10:40:26;;;;;;;31.80;19.52;;;7.90;99.90;;;;;;5056343;28;20233;-65
2022/01/13 10:43:07;;;;;;;32.92;17.80;;;7.90;99.90;;;;;;5056577;28;20221;-65
2022/01/13 10:45:39;;;;;;;31.40;17.23;;;7.90;99.90;;;;;;5056884;28;20228;-65
2022/01/13 10:48:08;;;;;;;31.35;19.38;;;7.90;99.90;;;;;;5056271;28;20226;-64
2022/01/13 10:50:38;;;;;;;28.63;18.75;;;7.80;99.90;;;;;;5056455;28;20231;-64
2022/01/13 10:53:08;;;;;;;32.50;18.83;;;7.80;99.90;;;;;;5055764;28;20237;-64
2022/01/13 10:55:39;;;;;;;29.73;19.13;;;7.80;99.90;;;;;;5056371;28;20239;-64
2022/01/13 10:58:06;;;;;;;28.67;18.27;;;7.80;99.90;;;;;;5055944;28;20223;-63
2022/01/13 11:00:35;;;;;;;31.17;17.90;;;7.80;99.90;;;;;;5056180;28;20229;-64
2022/01/13 11:03:07;;;;;;;30.27;17.10;;;7.80;99.90;;;;;;5055718;28;20231;-65
2022/01/13 11:05:36;;;;;;;27.05;17.20;;;7.90;99.90;;;;;;5056056;28;20220;-65
2022/01/13 11:08:07;;;;;;;31.35;18.58;;;7.80;99.90;;;;;;5055585;28;20224;-64
2022/01/13 11:10:35;;;;;;;30.77;18.05;;;7.80;99.90;;;;;;5055693;28;20227;-64
2022/01/13 11:13:04;;;;;;;28.88;19.52;;;7.80;99.90;;;;;;5055754;28;20237;-64
2022/01/13 11:15:34;;;;;;;29.75;19.67;;;7.90;99.90;;;;;;5055899;28;20762;-64
2022/01/13 11:18:01;;;;;;;31.20;18.63;;;7.80;99.90;;;;;;5055530;28;20230;-64
2022/01/13 11:20:30;;;;;;;29.25;17.92;;;7.90;99.90;;;;;;5055954;28;20231;-65
2022/01/13 11:22:58;;;;;;;25.27;16.40;;;7.90;99.90;;;;;;5055396;28;20259;-65
2022/01/13 11:25:27;;;;;;;31.70;17.70;;;7.90;99.90;;;;;;5055892;28;20223;-64
2022/01/13 11:27:56;;;;;;;30.65;18.17;;;7.90;99.90;;;;;;5055341;28;20312;-64
2022/01/13 11:30:25;;;;;;;31.20;19.35;;;7.90;99.90;;;;;;5055601;28;20315;-65
2022/01/13 11:32:52;;;;;;;28.35;16.92;;;7.90;99.90;;;;;;5055224;28;20227;-65
2022/01/13 11:35:24;;;;;;;26.63;16.42;;;7.90;99.90;;;;;;5055743;28;20227;-64
2022/01/13 11:37:52;;;;;;;22.92;16.20;;;8.00;99.90;;;;;;5055047;28;20236;-65
2022/01/13 11:40:35;;;;;;;28.58;17.95;;;7.90;99.90;;;;;;5054921;28;20314;-65
2022/01/13 11:43:04;;;;;;;29.65;16.75;;;8.00;99.90;;;;;;5055013;28;20318;-64
2022/01/13 11:45:39;;;;;;;24.58;16.10;;;8.00;99.90;;;;;;5055544;28;20562;-65
2022/01/13 11:48:15;;;;;;;27.95;17.85;;;8.00;99.90;;;;;;5055060;28;20234;-65
2022/01/13 11:50:46;;;;;;;24.38;15.93;;;8.00;99.90;;;;;;5055071;28;20225;-65
2022/01/13 11:53:22;;;;;;;32.10;19.98;;;7.90;99.90;;;;;;5055088;28;20308;-65
2022/01/13 11:55:55;;;;;;;31.33;19.08;;;7.90;99.90;;;;;;5054646;28;20230;-64
2022/01/13 11:58:25;;;;;;;29.67;17.27;;;7.90;99.90;;;;;;5055416;28;20253;-64
2022/01/13 12:00:54;;;;;;;24.67;14.82;;;8.00;99.90;;;;;;5054504;28;20232;-65
2022/01/13 12:03:26;;;;;;;31.05;16.23;;;8.00;99.90;;;;;;5054932;28;20246;-63
2022/01/13 12:05:54;;;;;;;27.73;16.50;;;8.00;99.90;;;;;;5054673;28;20228;-65
2022/01/13 12:08:39;;;;;;;28.48;16.75;;;8.10;99.90;;;;;;5054998;28;20221;-66
2022/01/13 12:11:06;;;;;;;28.90;17.80;;;8.10;99.90;;;;;;5054505;28;20232;-64
2022/01/13 12:13:36;;;;;;;25.40;15.02;;;8.10;99.90;;;;;;5054930;28;20222;-66
2022/01/13 12:16:05;;;;;;;23.92;15.07;;;8.10;99.90;;;;;;5054423;28;20306;-65
2022/01/13 12:19:10;;;;;;;24.75;16.13;;;8.10;99.90;;;;;;5054805;28;20224;-64
2022/01/13 12:21:42;;;;;;;30.30;17.25;;;8.10;99.90;;;;;;5054716;28;20213;-65
2022/01/13 12:24:12;;;;;;;23.27;15.18;;;8.00;99.90;;;;;;5054708;28;20224;-64
2022/01/13 12:26:48;;;;;;;20.77;14.35;;;8.10;99.90;;;;;;5054124;28;20277;-64
2022/01/13 12:29:17;;;;;;;24.63;14.40;;;8.10;99.90;;;;;;5054628;28;20569;-65
2022/01/13 12:31:57;;;;;;;23.00;13.90;;;8.10;99.90;;;;;;5054052;28;20291;-65
2022/01/13 12:34:44;;;;;;;26.10;14.57;;;8.10;99.90;;;;;;5054488;28;20700;-65
2022/01/13 12:37:24;;;;;;;25.85;14.43;;;8.10;99.90;;;;;;5054923;28;20228;-65
2022/01/13 12:39:57;;;;;;;22.90;13.88;;;8.20;99.90;;;;;;5054808;28;20224;-65
2022/01/13 12:42:27;;;;;;;20.67;14.73;;;8.20;99.90;;;;;;5054088;28;21008;-64
2022/01/13 12:47:39;;;;;;;26.63;16.08;;;8.20;99.90;;;;;;5054620;28;20226;-65
2022/01/13 12:50:22;;;;;;;23.25;14.75;;;8.20;99.90;;;;;;5053160;28;20237;-65
2022/01/13 12:52:49;;;;;;;21.80;13.65;;;8.20;99.90;;;;;;5053853;28;20570;-65
2022/01/13 12:55:18;;;;;;;25.95;15.20;;;8.30;99.90;;;;;;5054150;28;20622;-64
2022/01/13 12:57:49;;;;;;;24.40;14.75;;;8.40;99.90;;;;;;5053827;28;20241;-65
2022/01/13 13:00:19;;;;;;;23.50;17.13;;;8.30;99.90;;;;;;5053867;28;20233;-65